sensor_id;sensor_type;location;lat;lon;timestamp;pressure;altitude;pressure_sealevel;temperature;humidity
77079;BME280;66004;55.096;38.760;2023-07-13T14:04:06;99285.25;;;15.64;70.50
77079;BME280;66004;55.096;38.760;2023-07-13T14:06:34;99280.00;;;15.66;70.72
77079;BME280;66004;55.096;38.760;2023-07-13T14:09:00;99286.50;;;15.70;70.85
77079;BME280;66004;55.096;38.760;2023-07-13T14:11:29;99279.19;;;15.69;71.14
77079;BME280;66004;55.096;38.760;2023-07-13T14:13:58;99284.94;;;15.76;71.57
77079;BME280;66004;55.096;38.760;2023-07-13T14:16:29;99283.34;;;15.75;71.75
77079;BME280;66004;55.096;38.760;2023-07-13T14:18:56;99277.66;;;15.75;71.66
77079;BME280;66004;55.096;38.760;2023-07-13T14:21:26;99271.13;;;15.71;71.99
77079;BME280;66004;55.096;38.760;2023-07-13T14:23:52;99272.75;;;15.72;72.25
77079;BME280;66004;55.096;38.760;2023-07-13T14:26:20;99267.44;;;15.67;72.35
77079;BME280;66004;55.096;38.760;2023-07-13T14:28:52;99292.16;;;15.70;72.04
77079;BME280;66004;55.096;38.760;2023-07-13T14:31:18;99290.53;;;15.69;72.14
77079;BME280;66004;55.096;38.760;2023-07-13T14:33:44;99288.06;;;15.60;72.02
77079;BME280;66004;55.096;38.760;2023-07-13T14:36:32;99298.59;;;15.60;72.27
77079;BME280;66004;55.096;38.760;2023-07-13T14:39:01;99287.94;;;15.49;72.47
77079;BME280;66004;55.096;38.760;2023-07-13T14:41:31;99309.06;;;15.55;72.65
77079;BME280;66004;55.096;38.760;2023-07-13T14:43:57;99300.94;;;15.50;73.05
77079;BME280;66004;55.096;38.760;2023-07-13T14:46:30;99304.19;;;15.52;73.36
77079;BME280;66004;55.096;38.760;2023-07-13T14:49:06;99307.41;;;15.51;73.76
77079;BME280;66004;55.096;38.760;2023-07-13T14:51:33;99307.38;;;15.47;73.94
77079;BME280;66004;55.096;38.760;2023-07-13T14:54:05;99303.34;;;15.48;74.21
77079;BME280;66004;55.096;38.760;2023-07-13T14:56:30;99309.03;;;15.48;73.87
77079;BME280;66004;55.096;38.760;2023-07-13T14:58:56;99305.72;;;15.46;74.07
77079;BME280;66004;55.096;38.760;2023-07-13T15:01:22;99294.34;;;15.39;74.12
77079;BME280;66004;55.096;38.760;2023-07-13T15:03:50;99293.94;;;15.37;74.57
77079;BME280;66004;55.096;38.760;2023-07-13T15:06:16;99302.44;;;15.37;74.87
77079;BME280;66004;55.096;38.760;2023-07-13T15:08:44;99295.91;;;15.33;74.31
77079;BME280;66004;55.096;38.760;2023-07-13T15:11:09;99290.88;;;15.15;74.35
77079;BME280;66004;55.096;38.760;2023-07-13T15:13:40;99300.22;;;15.19;74.61
77079;BME280;66004;55.096;38.760;2023-07-13T15:16:18;99294.94;;;15.14;74.26
77079;BME280;66004;55.096;38.760;2023-07-13T15:18:46;99300.44;;;15.00;74.09
77079;BME280;66004;55.096;38.760;2023-07-13T15:21:17;99309.38;;;15.02;74.63
77079;BME280;66004;55.096;38.760;2023-07-13T15:23:44;99306.91;;;15.01;74.22
77079;BME280;66004;55.096;38.760;2023-07-13T15:26:14;99299.59;;;14.96;74.66
77079;BME280;66004;55.096;38.760;2023-07-13T15:28:44;99306.03;;;14.93;74.56
77079;BME280;66004;55.096;38.760;2023-07-13T15:31:36;99302.69;;;14.84;75.18
77079;BME280;66004;55.096;38.760;2023-07-13T15:34:07;99305.84;;;14.78;74.78
77079;BME280;66004;55.096;38.760;2023-07-13T15:36:35;99306.66;;;14.75;74.92
77079;BME280;66004;55.096;38.760;2023-07-13T15:39:01;99289.56;;;14.68;75.09
77079;BME280;66004;55.096;38.760;2023-07-13T15:41:28;99289.56;;;14.68;75.14
77079;BME280;66004;55.096;38.760;2023-07-13T15:43:56;99276.97;;;14.62;75.09
77079;BME280;66004;55.096;38.760;2023-07-13T15:46:26;99274.91;;;14.59;75.49
77079;BME280;66004;55.096;38.760;2023-07-13T15:48:54;99257.41;;;14.53;75.36
77079;BME280;66004;55.096;38.760;2023-07-13T15:51:30;99252.94;;;14.49;75.81
77079;BME280;66004;55.096;38.760;2023-07-13T15:54:03;99257.41;;;14.53;75.80
77079;BME280;66004;55.096;38.760;2023-07-13T15:56:35;99261.00;;;14.50;75.89
77079;BME280;66004;55.096;38.760;2023-07-13T15:59:02;99267.63;;;14.58;75.86
77079;BME280;66004;55.096;38.760;2023-07-13T16:01:28;99274.03;;;14.55;75.97
77079;BME280;66004;55.096;38.760;2023-07-13T16:03:55;99267.47;;;14.47;75.89
77079;BME280;66004;55.096;38.760;2023-07-13T16:06:32;99274.78;;;14.52;76.52
77079;BME280;66004;55.096;38.760;2023-07-13T16:09:02;99275.63;;;14.52;76.23
77079;BME280;66004;55.096;38.760;2023-07-13T16:11:32;99276.38;;;14.49;76.13
77079;BME280;66004;55.096;38.760;2023-07-13T16:13:58;99257.22;;;14.35;76.06
77079;BME280;66004;55.096;38.760;2023-07-13T16:16:29;99275.13;;;14.47;76.38
77079;BME280;66004;55.096;38.760;2023-07-13T16:18:57;99281.22;;;14.49;75.98
77079;BME280;66004;55.096;38.760;2023-07-13T16:21:25;99270.25;;;14.44;76.08
77079;BME280;66004;55.096;38.760;2023-07-13T16:23:52;99265.44;;;14.48;75.90
77079;BME280;66004;55.096;38.760;2023-07-13T16:28:53;99249.53;;;14.36;76.39
77079;BME280;66004;55.096;38.760;2023-07-13T16:31:31;99251.88;;;14.30;76.22
77079;BME280;66004;55.096;38.760;2023-07-13T16:33:58;99252.66;;;14.27;75.96
77079;BME280;66004;55.096;38.760;2023-07-13T16:36:28;99257.53;;;14.30;76.60
77079;BME280;66004;55.096;38.760;2023-07-13T16:38:54;99257.53;;;14.30;76.18
77079;BME280;66004;55.096;38.760;2023-07-13T16:41:20;99255.91;;;14.29;76.24
77079;BME280;66004;55.096;38.760;2023-07-13T16:43:45;99241.31;;;14.27;76.81
77079;BME280;66004;55.096;38.760;2023-07-13T16:46:12;99225.03;;;14.17;76.58
77079;BME280;66004;55.096;38.760;2023-07-13T16:48:41;99230.81;;;14.24;76.54
77079;BME280;66004;55.096;38.760;2023-07-13T16:51:07;99216.13;;;14.15;76.52
77079;BME280;66004;55.096;38.760;2023-07-13T16:53:33;99217.41;;;14.21;76.49
77079;BME280;66004;55.096;38.760;2023-07-13T16:56:00;99206.44;;;14.16;77.05
77079;BME280;66004;55.096;38.760;2023-07-13T16:58:28;99191.44;;;14.12;77.03
77079;BME280;66004;55.096;38.760;2023-07-13T17:00:56;99202.84;;;14.19;76.98
77079;BME280;66004;55.096;38.760;2023-07-13T17:03:22;99204.81;;;14.15;76.75
77079;BME280;66004;55.096;38.760;2023-07-13T17:05:49;99206.44;;;14.16;77.10
77079;BME280;66004;55.096;38.760;2023-07-13T17:08:20;99212.09;;;14.16;77.24
77079;BME280;66004;55.096;38.760;2023-07-13T17:10:49;99215.28;;;14.14;76.80
77079;BME280;66004;55.096;38.760;2023-07-13T17:13:16;99221.69;;;14.08;77.20
77079;BME280;66004;55.096;38.760;2023-07-13T17:15:44;99207.03;;;13.98;77.25
77079;BME280;66004;55.096;38.760;2023-07-13T17:18:11;99234.63;;;14.09;77.24
77079;BME280;66004;55.096;38.760;2023-07-13T17:20:39;99231.28;;;13.99;77.33
77079;BME280;66004;55.096;38.760;2023-07-13T17:23:16;99235.41;;;14.06;77.43
77079;BME280;66004;55.096;38.760;2023-07-13T17:25:43;99225.63;;;13.99;77.39
77079;BME280;66004;55.096;38.760;2023-07-13T17:28:09;99229.31;;;14.04;77.50
77079;BME280;66004;55.096;38.760;2023-07-13T17:30:37;99226.50;;;14.04;77.25
77079;BME280;66004;55.096;38.760;2023-07-13T17:33:04;99220.84;;;14.04;77.50
77079;BME280;66004;55.096;38.760;2023-07-13T17:35:34;99216.69;;;13.97;77.84
77079;BME280;66004;55.096;38.760;2023-07-13T17:38:03;99212.25;;;13.96;77.83
77079;BME280;66004;55.096;38.760;2023-07-13T17:40:29;99228.09;;;14.05;77.75
77079;BME280;66004;55.096;38.760;2023-07-13T17:42:55;99207.72;;;13.92;77.63
77079;BME280;66004;55.096;38.760;2023-07-13T17:45:26;99218.22;;;13.91;78.10
77079;BME280;66004;55.096;38.760;2023-07-13T17:47:53;99245.88;;;14.01;77.87
77079;BME280;66004;55.096;38.760;2023-07-13T17:50:30;99223.13;;;13.94;77.45
77079;BME280;66004;55.096;38.760;2023-07-13T17:53:19;99234.56;;;14.01;78.04
77079;BME280;66004;55.096;38.760;2023-07-13T17:55:46;99228.00;;;13.97;77.83
77079;BME280;66004;55.096;38.760;2023-07-13T17:58:13;99212.56;;;13.91;77.99
77079;BME280;66004;55.096;38.760;2023-07-13T18:00:41;99221.50;;;13.93;78.01
77079;BME280;66004;55.096;38.760;2023-07-13T18:03:21;99221.53;;;13.97;78.20
77079;BME280;66004;55.096;38.760;2023-07-13T18:05:50;99217.47;;;13.94;78.47
77079;BME280;66004;55.096;38.760;2023-07-13T18:08:25;99210.19;;;13.93;78.16
77079;BME280;66004;55.096;38.760;2023-07-13T18:10:51;99205.25;;;13.87;78.18
77079;BME280;66004;55.096;38.760;2023-07-13T18:13:18;99208.56;;;13.92;78.44
77079;BME280;66004;55.096;38.760;2023-07-13T18:15:44;99204.53;;;13.93;78.58
77079;BME280;66004;55.096;38.760;2023-07-13T18:18:11;99205.38;;;13.94;78.31
77079;BME280;66004;55.096;38.760;2023-07-13T18:20:38;99211.81;;;13.94;78.18
77079;BME280;66004;55.096;38.760;2023-07-13T18:23:15;99223.09;;;13.91;78.24
77079;BME280;66004;55.096;38.760;2023-07-13T18:25:41;99234.44;;;13.94;78.50
77079;BME280;66004;55.096;38.760;2023-07-13T18:28:07;99224.69;;;13.92;78.26
77079;BME280;66004;55.096;38.760;2023-07-13T18:30:33;99234.88;;;13.96;78.50
77079;BME280;66004;55.096;38.760;2023-07-13T18:32:59;99224.00;;;13.98;78.09
77079;BME280;66004;55.096;38.760;2023-07-13T18:35:32;99233.66;;;13.97;78.63
77079;BME280;66004;55.096;38.760;2023-07-13T18:37:59;99229.22;;;13.96;78.25
77079;BME280;66004;55.096;38.760;2023-07-13T18:40:25;99230.03;;;13.97;78.55
77079;BME280;66004;55.096;38.760;2023-07-13T18:42:52;99214.22;;;13.92;78.63
77079;BME280;66004;55.096;38.760;2023-07-13T18:45:18;99192.63;;;13.77;78.43
77079;BME280;66004;55.096;38.760;2023-07-13T18:47:45;99225.53;;;13.92;78.47
77079;BME280;66004;55.096;38.760;2023-07-13T18:50:16;99210.97;;;13.90;79.11
77079;BME280;66004;55.096;38.760;2023-07-13T18:52:44;99206.94;;;13.91;78.70
77079;BME280;66004;55.096;38.760;2023-07-13T18:55:14;99192.34;;;13.89;78.79
77079;BME280;66004;55.096;38.760;2023-07-13T18:57:41;99204.53;;;13.93;79.25
77079;BME280;66004;55.096;38.760;2023-07-13T19:00:07;99188.25;;;13.83;79.18
77079;BME280;66004;55.096;38.760;2023-07-13T19:02:33;99208.56;;;13.92;78.88
77079;BME280;66004;55.096;38.760;2023-07-13T19:04:59;99210.53;;;13.88;79.23
77079;BME280;66004;55.096;38.760;2023-07-13T19:07:25;99201.22;;;13.88;78.74
77079;BME280;66004;55.096;38.760;2023-07-13T19:09:53;99193.13;;;13.86;79.64
77079;BME280;66004;55.096;38.760;2023-07-13T19:12:21;99200.38;;;13.83;79.18
77079;BME280;66004;55.096;38.760;2023-07-13T19:14:48;99188.69;;;13.85;79.26
77079;BME280;66004;55.096;38.760;2023-07-13T19:17:14;99196.41;;;13.88;79.13
77079;BME280;66004;55.096;38.760;2023-07-13T19:19:40;99197.97;;;13.86;78.90
77079;BME280;66004;55.096;38.760;2023-07-13T19:22:06;99200.84;;;13.89;79.52
77079;BME280;66004;55.096;38.760;2023-07-13T19:24:36;99197.25;;;13.92;78.92
77079;BME280;66004;55.096;38.760;2023-07-13T19:27:02;99190.81;;;13.95;79.28
77079;BME280;66004;55.096;38.760;2023-07-13T19:29:28;99186.81;;;13.96;79.60
77079;BME280;66004;55.096;38.760;2023-07-13T19:31:54;99168.88;;;13.85;78.84
77079;BME280;66004;55.096;38.760;2023-07-13T19:34:23;99173.09;;;13.98;79.32
77079;BME280;66004;55.096;38.760;2023-07-13T19:36:59;99174.63;;;13.92;79.33
77079;BME280;66004;55.096;38.760;2023-07-13T19:39:29;99179.56;;;13.99;79.50
77079;BME280;66004;55.096;38.760;2023-07-13T19:42:03;99185.09;;;13.92;79.05
77079;BME280;66004;55.096;38.760;2023-07-13T19:44:32;99190.06;;;13.98;79.00
77079;BME280;66004;55.096;38.760;2023-07-13T19:46:58;99185.16;;;13.95;78.90
77079;BME280;66004;55.096;38.760;2023-07-13T19:49:24;99192.56;;;14.04;79.41
77079;BME280;66004;55.096;38.760;2023-07-13T19:51:50;99202.66;;;14.05;79.49
77079;BME280;66004;55.096;38.760;2023-07-13T19:54:16;99196.56;;;14.02;79.30
77079;BME280;66004;55.096;38.760;2023-07-13T19:56:45;99207.13;;;14.06;79.07
77079;BME280;66004;55.096;38.760;2023-07-13T20:01:49;99201.47;;;14.06;79.39
77079;BME280;66004;55.096;38.760;2023-07-13T20:04:15;99202.31;;;14.10;79.10
77079;BME280;66004;55.096;38.760;2023-07-13T20:06:40;99203.03;;;14.03;79.18
77079;BME280;66004;55.096;38.760;2023-07-13T20:09:20;99202.66;;;14.05;79.49
77079;BME280;66004;55.096;38.760;2023-07-13T20:11:47;99201.75;;;13.97;79.08
77079;BME280;66004;55.096;38.760;2023-07-13T20:16:45;99199.81;;;14.05;79.79
77079;BME280;66004;55.096;38.760;2023-07-13T20:19:15;99205.47;;;14.05;79.53
77079;BME280;66004;55.096;38.760;2023-07-13T20:21:42;99211.94;;;14.05;79.52
77079;BME280;66004;55.096;38.760;2023-07-13T20:24:15;99204.28;;;14.06;80.05
77079;BME280;66004;55.096;38.760;2023-07-13T20:26:43;99222.53;;;14.12;79.36
77079;BME280;66004;55.096;38.760;2023-07-13T20:29:10;99225.00;;;14.13;80.04
77079;BME280;66004;55.096;38.760;2023-07-13T20:31:35;99214.06;;;14.12;79.83
77079;BME280;66004;55.096;38.760;2023-07-13T20:34:02;99218.53;;;14.13;79.39
77079;BME280;66004;55.096;38.760;2023-07-13T20:36:29;99203.03;;;14.03;80.01
77079;BME280;66004;55.096;38.760;2023-07-13T20:38:55;99221.00;;;14.18;79.68
77079;BME280;66004;55.096;38.760;2023-07-13T20:41:21;99214.50;;;14.14;79.42
77079;BME280;66004;55.096;38.760;2023-07-13T20:43:47;99229.16;;;14.23;79.72
77079;BME280;66004;55.096;38.760;2023-07-13T20:46:16;99221.00;;;14.18;79.48
77079;BME280;66004;55.096;38.760;2023-07-13T20:48:43;99224.31;;;14.24;79.46
77079;BME280;66004;55.096;38.760;2023-07-13T20:51:14;99219.47;;;14.24;79.34
77079;BME280;66004;55.096;38.760;2023-07-13T20:53:42;99215.44;;;14.25;79.47
77079;BME280;66004;55.096;38.760;2023-07-13T20:56:16;99197.63;;;14.21;79.45
77079;BME280;66004;55.096;38.760;2023-07-13T20:58:42;99212.22;;;14.27;79.39
77079;BME280;66004;55.096;38.760;2023-07-13T21:01:14;99215.88;;;14.27;79.81
77079;BME280;66004;55.096;38.760;2023-07-13T21:03:41;99221.53;;;14.27;79.52
77079;BME280;66004;55.096;38.760;2023-07-13T21:06:14;99222.75;;;14.26;79.49
77079;BME280;66004;55.096;38.760;2023-07-13T21:08:40;99206.53;;;14.23;79.93
77079;BME280;66004;55.096;38.760;2023-07-13T21:11:06;99220.34;;;14.28;79.73
77079;BME280;66004;55.096;38.760;2023-07-13T21:13:33;99208.59;;;14.26;79.83
77079;BME280;66004;55.096;38.760;2023-07-13T21:16:13;99213.88;;;14.31;79.90
77079;BME280;66004;55.096;38.760;2023-07-13T21:18:39;99209.81;;;14.29;79.89
77079;BME280;66004;55.096;38.760;2023-07-13T21:21:05;99220.44;;;14.35;79.96
77079;BME280;66004;55.096;38.760;2023-07-13T21:23:35;99212.38;;;14.37;79.93
77079;BME280;66004;55.096;38.760;2023-07-13T21:26:04;99212.75;;;14.36;79.60
77079;BME280;66004;55.096;38.760;2023-07-13T21:28:40;99217.22;;;14.40;79.91
77079;BME280;66004;55.096;38.760;2023-07-13T21:31:11;99203.44;;;14.35;79.82
77079;BME280;66004;55.096;38.760;2023-07-13T21:33:39;99202.66;;;14.38;79.51
77079;BME280;66004;55.096;38.760;2023-07-13T21:36:05;99191.34;;;14.38;79.84
77079;BME280;66004;55.096;38.760;2023-07-13T21:38:34;99202.66;;;14.38;80.07
77079;BME280;66004;55.096;38.760;2023-07-13T21:41:06;99190.16;;;14.39;79.62
77079;BME280;66004;55.096;38.760;2023-07-13T21:43:37;99206.34;;;14.43;79.56
77079;BME280;66004;55.096;38.760;2023-07-13T21:46:03;99183.97;;;14.30;79.32
77079;BME280;66004;55.096;38.760;2023-07-13T21:48:28;99199.41;;;14.36;79.59
77079;BME280;66004;55.096;38.760;2023-07-13T21:50:55;99199.41;;;14.36;79.46
77079;BME280;66004;55.096;38.760;2023-07-13T21:55:48;99196.25;;;14.41;79.21
77079;BME280;66004;55.096;38.760;2023-07-13T21:58:22;99191.44;;;14.46;79.31
77079;BME280;66004;55.096;38.760;2023-07-13T22:00:48;99185.78;;;14.46;79.43
77079;BME280;66004;55.096;38.760;2023-07-13T22:03:23;99176.78;;;14.36;79.58
77079;BME280;66004;55.096;38.760;2023-07-13T22:05:50;99188.19;;;14.44;79.40
77079;BME280;66004;55.096;38.760;2023-07-13T22:08:18;99192.22;;;14.46;79.75
77079;BME280;66004;55.096;38.760;2023-07-13T22:10:44;99193.91;;;14.51;79.29
77079;BME280;66004;55.096;38.760;2023-07-13T22:13:10;99196.31;;;14.49;79.23
77079;BME280;66004;55.096;38.760;2023-07-13T22:15:36;99193.06;;;14.47;79.48
77079;BME280;66004;55.096;38.760;2023-07-13T22:18:10;99191.50;;;14.53;79.50
77079;BME280;66004;55.096;38.760;2023-07-13T22:20:36;99170.44;;;14.47;79.28
77079;BME280;66004;55.096;38.760;2023-07-13T22:23:23;99185.84;;;14.53;79.69
77079;BME280;66004;55.096;38.760;2023-07-13T22:25:50;99191.50;;;14.53;79.60
77079;BME280;66004;55.096;38.760;2023-07-13T22:28:19;99184.22;;;14.52;79.70
77079;BME280;66004;55.096;38.760;2023-07-13T22:30:47;99175.22;;;14.43;79.70
77079;BME280;66004;55.096;38.760;2023-07-13T22:33:17;99189.09;;;14.55;79.54
77079;BME280;66004;55.096;38.760;2023-07-13T22:35:43;99189.91;;;14.55;79.85
77079;BME280;66004;55.096;38.760;2023-07-13T22:38:30;99177.78;;;14.55;79.69
77079;BME280;66004;55.096;38.760;2023-07-13T22:40:57;99181.81;;;14.54;79.54
77079;BME280;66004;55.096;38.760;2023-07-13T22:43:25;99184.22;;;14.52;79.60
77079;BME280;66004;55.096;38.760;2023-07-13T22:45:54;99179.34;;;14.49;79.57
77079;BME280;66004;55.096;38.760;2023-07-13T22:48:23;99176.13;;;14.54;79.79
77079;BME280;66004;55.096;38.760;2023-07-13T22:50:49;99178.16;;;14.53;79.55
77079;BME280;66004;55.096;38.760;2023-07-13T22:53:28;99170.44;;;14.47;79.40
77079;BME280;66004;55.096;38.760;2023-07-13T22:55:55;99167.59;;;14.47;79.56
77079;BME280;66004;55.096;38.760;2023-07-13T22:58:24;99158.28;;;14.46;79.26
77079;BME280;66004;55.096;38.760;2023-07-13T23:00:57;99160.38;;;14.53;79.38
77079;BME280;66004;55.096;38.760;2023-07-13T23:03:27;99158.34;;;14.53;79.21
77079;BME280;66004;55.096;38.760;2023-07-13T23:05:54;99143.66;;;14.40;79.26
77079;BME280;66004;55.096;38.760;2023-07-13T23:08:20;99150.25;;;14.52;79.50
77079;BME280;66004;55.096;38.760;2023-07-13T23:10:47;99151.81;;;14.46;79.31
77079;BME280;66004;55.096;38.760;2023-07-13T23:13:13;99164.41;;;14.52;79.30
77079;BME280;66004;55.096;38.760;2023-07-13T23:15:39;99164.09;;;14.57;79.62
77079;BME280;66004;55.096;38.760;2023-07-13T23:18:05;99155.53;;;14.53;79.21
77079;BME280;66004;55.096;38.760;2023-07-13T23:20:33;99151.56;;;14.58;79.31
77079;BME280;66004;55.096;38.760;2023-07-13T23:23:00;99153.19;;;14.59;79.37
77079;BME280;66004;55.096;38.760;2023-07-13T23:25:27;99154.41;;;14.58;79.25
77079;BME280;66004;55.096;38.760;2023-07-13T23:27:54;99160.06;;;14.58;79.03
77079;BME280;66004;55.096;38.760;2023-07-13T23:30:22;99157.59;;;14.56;79.26
77079;BME280;66004;55.096;38.760;2023-07-13T23:32:57;99163.22;;;14.53;79.10
77079;BME280;66004;55.096;38.760;2023-07-13T23:35:23;99155.06;;;14.48;79.05
77079;BME280;66004;55.096;38.760;2023-07-13T23:37:49;99164.81;;;14.54;79.21
77079;BME280;66004;55.096;38.760;2023-07-13T23:40:18;99169.69;;;14.53;79.32
77079;BME280;66004;55.096;38.760;2023-07-13T23:42:44;99160.72;;;14.48;79.27
77079;BME280;66004;55.096;38.760;2023-07-13T23:45:21;99164.81;;;14.54;78.93
77079;BME280;66004;55.096;38.760;2023-07-13T23:47:48;99168.88;;;14.53;79.44
77079;BME280;66004;55.096;38.760;2023-07-13T23:50:28;99173.31;;;14.54;79.36
77079;BME280;66004;55.096;38.760;2023-07-13T23:52:55;99175.34;;;14.53;79.04
77079;BME280;66004;55.096;38.760;2023-07-13T23:55:28;99165.63;;;14.51;79.50
77079;BME280;66004;55.096;38.760;2023-07-13T23:57:58;99167.66;;;14.54;79.41
